• Join FlightAware (Why Join?)
  • Login
  • US Flag 
10:53AM EST


 

Airport Tracker/Info


-or-


 

Live Flight TrackerFlight Track Log ✈ SKW5550 ✈ 19-Jan-2014 ✈ KCOD - KDEN

Flight Track Log - Related Links

Times and Time Zones

All times are in EST time to prevent confusion due to time zone crossing. See the SKW5550 flight status page for this flight to view local times or setup timezone preferences in your user account.

Time Position Orientation Groundspeed Altitude Reporting Facility
EST Latitude Longitude Course Direction KTS MPH feet Rate Location/Type
07:54AM 44.5069 -109.0511 143° Southeast 151 174 6,500  Level Salt Lake Center
07:55AM 44.4736 -109.0161 143° Southeast 249 287 8,300 2,340 Climbing Salt Lake Center
07:56AM 44.5231 -108.9758 30° Northeast 239 275 11,200 2,760 Climbing Salt Lake Center
07:57AM 44.5764 -108.9497 19° North 244 281 13,800 1,920 Climbing Salt Lake Center
07:58AM 44.5478 -108.8414 110° East 310 357 15,100 1,800 Climbing Salt Lake Center
07:59AM 44.4664 -108.7706 148° Southeast 345 397 17,400 1,980 Climbing Salt Lake Center
08:00AM 44.3847 -108.6964 147° Southeast 348 400 19,200 1,740 Climbing Salt Lake Center
08:01AM 44.2806 -108.6033 147° Southeast 365 420 21,000 1,740 Climbing Salt Lake Center
08:02AM 44.1897 -108.5244 148° Southeast 379 436 22,800 1,500 Climbing Salt Lake Center
08:03AM 44.0986 -108.4453 148° Southeast 387 445 24,100 1,200 Climbing Salt Lake Center
08:04AM 44.0033 -108.3633 148° Southeast 400 460 25,300 1,260 Climbing Salt Lake Center
08:05AM 43.9061 -108.2783 148° Southeast 412 474 26,700 1,320 Climbing Salt Lake Center
08:06AM 43.8078 -108.1933 148° Southeast 417 480 27,900 840 Climbing Salt Lake Center
08:07AM 43.7089 -108.1067 148° Southeast 423 487 28,400 420 Climbing Salt Lake Center
08:08AM 43.6022 -108.0167 149° Southeast 445 512 28,800 480 Climbing Salt Lake Center
08:09AM 43.4947 -107.9231 148° Southeast 458 527 29,400 600 Climbing Salt Lake Center
08:10AM 43.3853 -107.8283 148° Southeast 465 535 30,000 660 Climbing Salt Lake Center
08:11AM 43.2750 -107.7353 148° Southeast 466 536 30,700 480 Climbing Salt Lake Center
08:12AM 43.1656 -107.6428 148° Southeast 465 535 31,000 120 Climbing Salt Lake Center
08:13AM 43.0519 -107.5486 149° Southeast 476 548 31,000  Level Salt Lake Center
08:14AM 42.9378 -107.4511 148° Southeast 485 558 31,000  Level Salt Lake Center
08:15AM 42.8144 -107.3475 148° Southeast 492 566 31,000  Level Salt Lake Center
08:16AM 42.7411 -107.2856 148° Southeast 487 560 31,000  Level Denver Center
08:17AM 42.6169 -107.1833 149° Southeast 482 555 31,000  Level Denver Center
08:18AM 42.5039 -107.0883 148° Southeast 479 551 31,000  Level Denver Center
08:19AM 42.3933 -106.9989 149° Southeast 481 554 31,000  Level Denver Center
08:20AM 42.2858 -106.9053 147° Southeast 481 554 31,000  Level Denver Center
08:21AM 42.1625 -106.7931 146° Southeast 478 550 31,000  Level Denver Center
08:22AM 42.0547 -106.6989 147° Southeast 481 554 31,000  Level Denver Center
08:23AM 41.9489 -106.6047 146° Southeast 478 550 31,000  Level Denver Center
08:24AM 41.8317 -106.5008 147° Southeast 477 549 31,000  Level Denver Center
08:25AM 41.7261 -106.4097 147° Southeast 473 544 31,000  Level Denver Center
08:26AM 41.6228 -106.3178 146° Southeast 468 539 31,000  Level Denver Center
08:27AM 41.4836 -106.1964 147° Southeast 468 539 31,000  Level Denver Center
08:28AM 41.3811 -106.1078 147° Southeast 464 534 31,000  Level Denver Center
08:29AM 41.2586 -106.0006 147° Southeast 470 541 31,000  Level Denver Center
08:30AM 41.1533 -105.9106 147° Southeast 471 542 31,000  Level Denver Center
08:31AM 41.0492 -105.8208 147° Southeast 468 539 31,000 -1,200 Level Denver Center
08:32AM 40.9289 -105.7172 147° Southeast 468 539 28,700 -2,520 Descending Denver Center
08:33AM 40.8197 -105.6256 148° Southeast 466 536 26,000 -2,700 Descending Denver Center
08:34AM 40.7167 -105.5369 147° Southeast 450 518 23,300 -2,640 Descending Denver Center
08:35AM 40.6183 -105.4539 147° Southeast 426 490 20,800 -2,280 Descending Denver Center
08:36AM 40.5508 -105.3464 130° Southeast 388 447 18,800 -1,740 Descending Denver Center
08:37AM 40.4925 -105.2325 124° Southeast 376 433 17,300 -1,380 Descending Denver Center
08:38AM 40.4400 -105.1314 124° Southeast 367 422 16,100 -1,260 Descending Denver Center
08:39AM 40.3739 -105.0311 131° Southeast 364 419 14,800 -1,380 Descending Denver Center
08:40AM 40.3083 -104.9242 129° Southeast 350 403 13,400 -1,380 Descending Denver Center
08:41AM 40.2494 -104.8322 130° Southeast 331 381 12,100 -1,440 Descending Denver Center
08:42AM 40.1858 -104.7569 138° Southeast 312 359 10,600 -1,560 Descending Denver Center
08:43AM 40.1094 -104.7114 155° Southeast 301 346 9,000 -1,200 Descending Denver Center
08:44AM 40.0347 -104.6972 172° South 265 305 8,200 -1,020 Descending Denver Center
08:45AM 39.9750 -104.6953 179° South 212 244 7,000 -1,080 Descending Denver Center
08:46AM 39.9297 -104.6953 180° South 167 192 6,100 -900 Descending Denver Center
08:47AM 39.8883 -104.6958 181° South 151 174 5,300 -840 Descending Denver Center